sensor_id;sensor_type;location;lat;lon;timestamp;temperature;humidity
53880;DHT22;39791;53.184;5.486;2023-03-14T00:00:23;11.50;99.90
53880;DHT22;39791;53.184;5.486;2023-03-14T00:02:54;11.40;99.90
53880;DHT22;39791;53.184;5.486;2023-03-14T00:05:20;11.30;99.90
53880;DHT22;39791;53.184;5.486;2023-03-14T00:07:46;11.00;99.90
53880;DHT22;39791;53.184;5.486;2023-03-14T00:10:13;10.20;99.90
53880;DHT22;39791;53.184;5.486;2023-03-14T00:12:40;10.60;99.90
53880;DHT22;39791;53.184;5.486;2023-03-14T00:15:06;10.80;99.90
53880;DHT22;39791;53.184;5.486;2023-03-14T00:17:32;11.00;1.00
53880;DHT22;39791;53.184;5.486;2023-03-14T00:19:58;10.40;1.00
53880;DHT22;39791;53.184;5.486;2023-03-14T00:22:30;10.20;1.00
53880;DHT22;39791;53.184;5.486;2023-03-14T00:24:56;10.40;34.80
53880;DHT22;39791;53.184;5.486;2023-03-14T00:27:21;10.40;6.80
53880;DHT22;39791;53.184;5.486;2023-03-14T00:29:47;10.90;14.90
53880;DHT22;39791;53.184;5.486;2023-03-14T00:32:13;9.80;59.60
53880;DHT22;39791;53.184;5.486;2023-03-14T00:34:38;10.10;70.40
53880;DHT22;39791;53.184;5.486;2023-03-14T00:37:05;10.90;99.90
53880;DHT22;39791;53.184;5.486;2023-03-14T00:39:31;9.80;99.90
53880;DHT22;39791;53.184;5.486;2023-03-14T00:41:56;10.10;1.00
53880;DHT22;39791;53.184;5.486;2023-03-14T00:44:22;11.30;1.00
53880;DHT22;39791;53.184;5.486;2023-03-14T00:46:47;11.10;99.90
53880;DHT22;39791;53.184;5.486;2023-03-14T00:49:13;10.40;99.90
53880;DHT22;39791;53.184;5.486;2023-03-14T00:51:38;10.20;1.00
53880;DHT22;39791;53.184;5.486;2023-03-14T00:54:04;10.50;1.00
53880;DHT22;39791;53.184;5.486;2023-03-14T00:56:30;10.90;1.00
53880;DHT22;39791;53.184;5.486;2023-03-14T00:58:56;10.90;32.00
53880;DHT22;39791;53.184;5.486;2023-03-14T01:01:22;11.30;91.80
53880;DHT22;39791;53.184;5.486;2023-03-14T01:03:52;11.00;99.90
53880;DHT22;39791;53.184;5.486;2023-03-14T01:06:21;11.20;99.90
53880;DHT22;39791;53.184;5.486;2023-03-14T01:08:47;10.40;99.90
53880;DHT22;39791;53.184;5.486;2023-03-14T01:11:16;10.30;99.90
53880;DHT22;39791;53.184;5.486;2023-03-14T01:13:42;10.90;99.90
53880;DHT22;39791;53.184;5.486;2023-03-14T01:16:10;10.20;1.00
53880;DHT22;39791;53.184;5.486;2023-03-14T01:18:38;10.60;99.90
53880;DHT22;39791;53.184;5.486;2023-03-14T01:21:10;11.00;1.00
53880;DHT22;39791;53.184;5.486;2023-03-14T01:23:36;11.10;99.90
53880;DHT22;39791;53.184;5.486;2023-03-14T01:26:01;9.70;99.90
53880;DHT22;39791;53.184;5.486;2023-03-14T01:28:27;9.20;99.90
53880;DHT22;39791;53.184;5.486;2023-03-14T01:30:52;9.40;1.00
53880;DHT22;39791;53.184;5.486;2023-03-14T01:33:18;10.60;99.90
53880;DHT22;39791;53.184;5.486;2023-03-14T01:35:43;10.40;21.80
53880;DHT22;39791;53.184;5.486;2023-03-14T01:38:09;10.00;1.00
53880;DHT22;39791;53.184;5.486;2023-03-14T01:40:42;11.00;99.90
53880;DHT22;39791;53.184;5.486;2023-03-14T01:43:20;10.40;74.00
53880;DHT22;39791;53.184;5.486;2023-03-14T01:48:40;9.60;99.90
53880;DHT22;39791;53.184;5.486;2023-03-14T01:51:09;9.30;99.90
53880;DHT22;39791;53.184;5.486;2023-03-14T01:53:36;10.30;1.00
53880;DHT22;39791;53.184;5.486;2023-03-14T01:56:03;10.60;44.90
53880;DHT22;39791;53.184;5.486;2023-03-14T01:58:30;10.90;1.00
53880;DHT22;39791;53.184;5.486;2023-03-14T02:00:58;10.10;99.90
53880;DHT22;39791;53.184;5.486;2023-03-14T02:03:25;10.50;99.90
53880;DHT22;39791;53.184;5.486;2023-03-14T02:05:53;11.30;99.90
53880;DHT22;39791;53.184;5.486;2023-03-14T02:08:22;11.00;99.90
53880;DHT22;39791;53.184;5.486;2023-03-14T02:10:48;9.80;99.90
53880;DHT22;39791;53.184;5.486;2023-03-14T02:13:17;10.80;99.90
53880;DHT22;39791;53.184;5.486;2023-03-14T02:15:44;11.00;99.90
53880;DHT22;39791;53.184;5.486;2023-03-14T02:18:10;9.30;99.90
53880;DHT22;39791;53.184;5.486;2023-03-14T02:26:24;10.90;99.90
53880;DHT22;39791;53.184;5.486;2023-03-14T02:28:53;9.50;99.90
53880;DHT22;39791;53.184;5.486;2023-03-14T02:31:19;9.00;99.90
53880;DHT22;39791;53.184;5.486;2023-03-14T02:33:46;9.90;99.90
53880;DHT22;39791;53.184;5.486;2023-03-14T02:36:13;11.10;99.90
53880;DHT22;39791;53.184;5.486;2023-03-14T02:38:50;9.20;99.90
53880;DHT22;39791;53.184;5.486;2023-03-14T02:41:17;9.40;99.90
53880;DHT22;39791;53.184;5.486;2023-03-14T02:43:43;9.30;99.90
53880;DHT22;39791;53.184;5.486;2023-03-14T02:46:12;11.30;99.90
53880;DHT22;39791;53.184;5.486;2023-03-14T02:48:47;11.30;99.90
53880;DHT22;39791;53.184;5.486;2023-03-14T02:51:15;10.10;99.90
53880;DHT22;39791;53.184;5.486;2023-03-14T02:53:41;8.80;99.90
53880;DHT22;39791;53.184;5.486;2023-03-14T02:56:08;8.90;99.90
53880;DHT22;39791;53.184;5.486;2023-03-14T02:58:34;10.70;99.90
53880;DHT22;39791;53.184;5.486;2023-03-14T03:00:59;11.60;99.90
53880;DHT22;39791;53.184;5.486;2023-03-14T03:03:25;9.40;99.90
53880;DHT22;39791;53.184;5.486;2023-03-14T03:05:52;11.40;99.90
53880;DHT22;39791;53.184;5.486;2023-03-14T03:08:20;9.20;99.90
53880;DHT22;39791;53.184;5.486;2023-03-14T03:10:45;11.20;99.90
53880;DHT22;39791;53.184;5.486;2023-03-14T03:13:11;8.90;99.90
53880;DHT22;39791;53.184;5.486;2023-03-14T03:15:37;10.60;99.90
53880;DHT22;39791;53.184;5.486;2023-03-14T03:18:02;11.40;99.90
53880;DHT22;39791;53.184;5.486;2023-03-14T03:20:28;10.80;99.90
53880;DHT22;39791;53.184;5.486;2023-03-14T03:22:53;9.60;99.90
53880;DHT22;39791;53.184;5.486;2023-03-14T03:25:19;11.10;99.90
53880;DHT22;39791;53.184;5.486;2023-03-14T03:27:45;10.50;99.90
53880;DHT22;39791;53.184;5.486;2023-03-14T03:30:11;9.10;99.90
53880;DHT22;39791;53.184;5.486;2023-03-14T03:32:37;9.50;99.90
53880;DHT22;39791;53.184;5.486;2023-03-14T03:35:03;8.90;99.90
53880;DHT22;39791;53.184;5.486;2023-03-14T03:37:30;11.30;99.90
53880;DHT22;39791;53.184;5.486;2023-03-14T03:39:56;10.10;99.90
53880;DHT22;39791;53.184;5.486;2023-03-14T03:42:22;9.70;99.90
53880;DHT22;39791;53.184;5.486;2023-03-14T03:44:47;10.00;99.90
53880;DHT22;39791;53.184;5.486;2023-03-14T03:47:14;9.50;99.90
53880;DHT22;39791;53.184;5.486;2023-03-14T03:49:39;10.90;99.90
53880;DHT22;39791;53.184;5.486;2023-03-14T03:52:05;10.80;99.90
53880;DHT22;39791;53.184;5.486;2023-03-14T03:54:30;9.10;99.90
53880;DHT22;39791;53.184;5.486;2023-03-14T03:56:56;9.30;99.90
53880;DHT22;39791;53.184;5.486;2023-03-14T03:59:21;11.10;99.90
53880;DHT22;39791;53.184;5.486;2023-03-14T04:01:47;10.20;99.90
53880;DHT22;39791;53.184;5.486;2023-03-14T04:04:13;10.40;99.90
53880;DHT22;39791;53.184;5.486;2023-03-14T04:06:39;11.30;99.90
53880;DHT22;39791;53.184;5.486;2023-03-14T04:09:05;11.00;99.90
53880;DHT22;39791;53.184;5.486;2023-03-14T04:11:31;11.20;99.90
53880;DHT22;39791;53.184;5.486;2023-03-14T04:13:56;11.00;99.90
53880;DHT22;39791;53.184;5.486;2023-03-14T04:16:23;9.70;99.90
53880;DHT22;39791;53.184;5.486;2023-03-14T04:18:50;11.50;99.90
53880;DHT22;39791;53.184;5.486;2023-03-14T04:21:16;8.70;99.90
53880;DHT22;39791;53.184;5.486;2023-03-14T04:23:41;10.60;99.90
53880;DHT22;39791;53.184;5.486;2023-03-14T04:26:08;11.50;99.90
53880;DHT22;39791;53.184;5.486;2023-03-14T04:28:34;9.50;99.90
53880;DHT22;39791;53.184;5.486;2023-03-14T04:31:09;11.30;99.90
53880;DHT22;39791;53.184;5.486;2023-03-14T04:33:35;8.30;99.90
53880;DHT22;39791;53.184;5.486;2023-03-14T04:36:01;8.70;99.90
53880;DHT22;39791;53.184;5.486;2023-03-14T04:38:27;11.70;99.90
53880;DHT22;39791;53.184;5.486;2023-03-14T04:40:52;11.80;99.90
53880;DHT22;39791;53.184;5.486;2023-03-14T04:43:18;8.50;99.90
53880;DHT22;39791;53.184;5.486;2023-03-14T04:45:43;10.90;99.90
53880;DHT22;39791;53.184;5.486;2023-03-14T04:48:09;10.00;99.90
53880;DHT22;39791;53.184;5.486;2023-03-14T04:50:35;8.50;99.90
53880;DHT22;39791;53.184;5.486;2023-03-14T04:53:00;11.00;99.90
53880;DHT22;39791;53.184;5.486;2023-03-14T04:55:26;10.10;99.90
53880;DHT22;39791;53.184;5.486;2023-03-14T04:57:51;11.60;99.90
53880;DHT22;39791;53.184;5.486;2023-03-14T05:00:17;11.60;99.90
53880;DHT22;39791;53.184;5.486;2023-03-14T05:02:44;11.40;99.90
53880;DHT22;39791;53.184;5.486;2023-03-14T05:05:09;9.00;99.90
53880;DHT22;39791;53.184;5.486;2023-03-14T05:07:35;10.70;99.90
53880;DHT22;39791;53.184;5.486;2023-03-14T05:10:01;10.80;99.90
53880;DHT22;39791;53.184;5.486;2023-03-14T05:12:26;8.50;99.90
53880;DHT22;39791;53.184;5.486;2023-03-14T05:14:52;10.90;99.90
53880;DHT22;39791;53.184;5.486;2023-03-14T05:17:18;9.00;99.90
53880;DHT22;39791;53.184;5.486;2023-03-14T05:19:44;11.00;99.90
53880;DHT22;39791;53.184;5.486;2023-03-14T05:22:10;11.30;99.90
53880;DHT22;39791;53.184;5.486;2023-03-14T05:24:35;8.80;99.90
53880;DHT22;39791;53.184;5.486;2023-03-14T05:27:01;9.60;99.90
53880;DHT22;39791;53.184;5.486;2023-03-14T05:29:27;8.50;99.90
53880;DHT22;39791;53.184;5.486;2023-03-14T05:31:52;8.50;99.90
53880;DHT22;39791;53.184;5.486;2023-03-14T05:34:18;10.50;99.90
53880;DHT22;39791;53.184;5.486;2023-03-14T05:36:44;9.00;99.90
53880;DHT22;39791;53.184;5.486;2023-03-14T05:39:09;10.40;99.90
53880;DHT22;39791;53.184;5.486;2023-03-14T05:41:35;8.80;99.90
53880;DHT22;39791;53.184;5.486;2023-03-14T05:44:01;8.10;99.90
53880;DHT22;39791;53.184;5.486;2023-03-14T05:46:26;7.90;99.90
53880;DHT22;39791;53.184;5.486;2023-03-14T05:48:52;9.70;99.90
53880;DHT22;39791;53.184;5.486;2023-03-14T05:51:17;8.70;99.90
53880;DHT22;39791;53.184;5.486;2023-03-14T05:53:43;8.20;99.90
53880;DHT22;39791;53.184;5.486;2023-03-14T05:56:09;9.00;99.90
53880;DHT22;39791;53.184;5.486;2023-03-14T05:58:34;7.70;99.90
53880;DHT22;39791;53.184;5.486;2023-03-14T06:01:04;7.80;99.90
53880;DHT22;39791;53.184;5.486;2023-03-14T06:03:31;7.10;99.90
53880;DHT22;39791;53.184;5.486;2023-03-14T06:05:57;8.80;99.90
53880;DHT22;39791;53.184;5.486;2023-03-14T06:08:22;6.60;99.90
53880;DHT22;39791;53.184;5.486;2023-03-14T06:10:48;7.70;99.90
53880;DHT22;39791;53.184;5.486;2023-03-14T06:13:13;6.50;99.90
53880;DHT22;39791;53.184;5.486;2023-03-14T06:15:41;8.50;99.90
53880;DHT22;39791;53.184;5.486;2023-03-14T06:18:06;6.90;99.90
53880;DHT22;39791;53.184;5.486;2023-03-14T06:20:32;7.10;99.90
53880;DHT22;39791;53.184;5.486;2023-03-14T06:22:58;6.30;99.90
53880;DHT22;39791;53.184;5.486;2023-03-14T06:25:24;8.10;99.90
53880;DHT22;39791;53.184;5.486;2023-03-14T06:27:50;6.40;99.90
53880;DHT22;39791;53.184;5.486;2023-03-14T06:30:16;6.80;99.90
53880;DHT22;39791;53.184;5.486;2023-03-14T06:32:41;8.30;99.90
53880;DHT22;39791;53.184;5.486;2023-03-14T06:35:07;7.70;99.90
53880;DHT22;39791;53.184;5.486;2023-03-14T06:37:34;8.30;99.90
53880;DHT22;39791;53.184;5.486;2023-03-14T06:39:59;6.40;99.90
53880;DHT22;39791;53.184;5.486;2023-03-14T06:42:25;8.20;99.90
53880;DHT22;39791;53.184;5.486;2023-03-14T06:44:51;7.60;99.90
53880;DHT22;39791;53.184;5.486;2023-03-14T06:47:16;6.20;99.90
53880;DHT22;39791;53.184;5.486;2023-03-14T06:49:42;6.90;99.90
53880;DHT22;39791;53.184;5.486;2023-03-14T06:52:07;6.40;99.90
53880;DHT22;39791;53.184;5.486;2023-03-14T06:54:33;8.40;99.90
53880;DHT22;39791;53.184;5.486;2023-03-14T06:56:58;6.70;99.90
53880;DHT22;39791;53.184;5.486;2023-03-14T06:59:24;6.40;99.90
53880;DHT22;39791;53.184;5.486;2023-03-14T07:01:50;7.70;99.90
53880;DHT22;39791;53.184;5.486;2023-03-14T07:04:16;7.60;99.90
53880;DHT22;39791;53.184;5.486;2023-03-14T07:06:42;8.10;99.90
53880;DHT22;39791;53.184;5.486;2023-03-14T07:09:10;6.40;99.90
53880;DHT22;39791;53.184;5.486;2023-03-14T07:11:36;8.00;99.90
53880;DHT22;39791;53.184;5.486;2023-03-14T07:14:02;6.20;99.90
53880;DHT22;39791;53.184;5.486;2023-03-14T07:16:28;8.30;99.90
53880;DHT22;39791;53.184;5.486;2023-03-14T07:18:57;8.40;99.90
53880;DHT22;39791;53.184;5.486;2023-03-14T07:21:23;7.00;99.90
53880;DHT22;39791;53.184;5.486;2023-03-14T07:23:48;7.60;99.90
53880;DHT22;39791;53.184;5.486;2023-03-14T07:26:14;7.40;99.90
53880;DHT22;39791;53.184;5.486;2023-03-14T07:28:39;7.20;99.90
53880;DHT22;39791;53.184;5.486;2023-03-14T07:31:05;7.70;99.90
53880;DHT22;39791;53.184;5.486;2023-03-14T07:33:31;6.80;99.90
53880;DHT22;39791;53.184;5.486;2023-03-14T07:35:57;7.60;99.90
53880;DHT22;39791;53.184;5.486;2023-03-14T07:38:22;7.30;99.90
53880;DHT22;39791;53.184;5.486;2023-03-14T07:40:48;7.30;99.90
53880;DHT22;39791;53.184;5.486;2023-03-14T07:43:13;8.40;99.90
53880;DHT22;39791;53.184;5.486;2023-03-14T07:45:39;7.20;99.90
53880;DHT22;39791;53.184;5.486;2023-03-14T07:48:05;7.00;99.90
53880;DHT22;39791;53.184;5.486;2023-03-14T07:50:30;8.40;99.90
53880;DHT22;39791;53.184;5.486;2023-03-14T07:52:56;8.50;99.90
53880;DHT22;39791;53.184;5.486;2023-03-14T07:55:21;8.50;99.90
53880;DHT22;39791;53.184;5.486;2023-03-14T07:57:47;7.80;99.90
53880;DHT22;39791;53.184;5.486;2023-03-14T08:00:13;7.00;99.90
53880;DHT22;39791;53.184;5.486;2023-03-14T08:02:42;8.50;99.90
53880;DHT22;39791;53.184;5.486;2023-03-14T08:05:07;7.10;99.90
53880;DHT22;39791;53.184;5.486;2023-03-14T08:07:33;8.70;99.90
53880;DHT22;39791;53.184;5.486;2023-03-14T08:09:59;7.30;99.90
53880;DHT22;39791;53.184;5.486;2023-03-14T08:12:24;7.60;99.90
53880;DHT22;39791;53.184;5.486;2023-03-14T08:14:50;7.40;99.90
53880;DHT22;39791;53.184;5.486;2023-03-14T08:17:15;7.80;99.90
53880;DHT22;39791;53.184;5.486;2023-03-14T08:19:41;8.20;99.90
53880;DHT22;39791;53.184;5.486;2023-03-14T08:22:07;7.50;99.90
53880;DHT22;39791;53.184;5.486;2023-03-14T08:24:33;8.30;99.90
53880;DHT22;39791;53.184;5.486;2023-03-14T08:26:58;8.10;99.90
53880;DHT22;39791;53.184;5.486;2023-03-14T08:29:24;7.60;99.90
53880;DHT22;39791;53.184;5.486;2023-03-14T08:31:50;8.70;99.90
53880;DHT22;39791;53.184;5.486;2023-03-14T08:34:15;7.70;99.90
53880;DHT22;39791;53.184;5.486;2023-03-14T08:36:41;8.30;99.90
53880;DHT22;39791;53.184;5.486;2023-03-14T08:39:07;8.70;99.90
53880;DHT22;39791;53.184;5.486;2023-03-14T08:41:33;7.30;99.90
53880;DHT22;39791;53.184;5.486;2023-03-14T08:44:00;8.40;99.90
53880;DHT22;39791;53.184;5.486;2023-03-14T08:46:25;8.50;99.90
53880;DHT22;39791;53.184;5.486;2023-03-14T08:48:51;8.50;99.90
53880;DHT22;39791;53.184;5.486;2023-03-14T08:51:17;7.30;99.90
53880;DHT22;39791;53.184;5.486;2023-03-14T08:53:43;7.30;99.90
53880;DHT22;39791;53.184;5.486;2023-03-14T08:56:09;8.20;99.90
53880;DHT22;39791;53.184;5.486;2023-03-14T08:58:36;8.40;99.90
53880;DHT22;39791;53.184;5.486;2023-03-14T09:01:04;7.30;99.90
53880;DHT22;39791;53.184;5.486;2023-03-14T09:03:30;7.80;99.90
53880;DHT22;39791;53.184;5.486;2023-03-14T09:05:55;8.50;99.90
53880;DHT22;39791;53.184;5.486;2023-03-14T09:08:21;8.30;99.90
53880;DHT22;39791;53.184;5.486;2023-03-14T09:10:47;7.90;99.90
53880;DHT22;39791;53.184;5.486;2023-03-14T09:13:12;8.00;1.00
53880;DHT22;39791;53.184;5.486;2023-03-14T09:15:38;8.00;99.90
53880;DHT22;39791;53.184;5.486;2023-03-14T09:18:04;8.10;99.90
53880;DHT22;39791;53.184;5.486;2023-03-14T09:20:29;8.00;99.90
53880;DHT22;39791;53.184;5.486;2023-03-14T09:22:55;8.00;99.90
53880;DHT22;39791;53.184;5.486;2023-03-14T09:25:21;8.40;1.00
53880;DHT22;39791;53.184;5.486;2023-03-14T09:27:46;8.10;99.90
53880;DHT22;39791;53.184;5.486;2023-03-14T09:30:12;8.20;1.00
53880;DHT22;39791;53.184;5.486;2023-03-14T09:32:38;8.40;99.90
53880;DHT22;39791;53.184;5.486;2023-03-14T09:35:03;8.40;99.90
53880;DHT22;39791;53.184;5.486;2023-03-14T09:37:29;8.20;1.00
53880;DHT22;39791;53.184;5.486;2023-03-14T09:39:55;8.10;1.00
53880;DHT22;39791;53.184;5.486;2023-03-14T09:42:23;8.40;99.90
53880;DHT22;39791;53.184;5.486;2023-03-14T09:44:59;8.10;99.90
53880;DHT22;39791;53.184;5.486;2023-03-14T09:47:27;8.40;99.90
53880;DHT22;39791;53.184;5.486;2023-03-14T09:49:53;8.30;99.90
53880;DHT22;39791;53.184;5.486;2023-03-14T09:52:27;8.60;63.30
53880;DHT22;39791;53.184;5.486;2023-03-14T09:57:28;8.70;1.00
53880;DHT22;39791;53.184;5.486;2023-03-14T09:59:58;8.60;1.00
53880;DHT22;39791;53.184;5.486;2023-03-14T10:02:32;8.60;1.00
53880;DHT22;39791;53.184;5.486;2023-03-14T10:04:58;8.60;1.00
53880;DHT22;39791;53.184;5.486;2023-03-14T10:07:29;8.50;99.90
53880;DHT22;39791;53.184;5.486;2023-03-14T10:09:55;8.50;99.90
53880;DHT22;39791;53.184;5.486;2023-03-14T10:12:34;8.40;99.90
53880;DHT22;39791;53.184;5.486;2023-03-14T10:15:06;8.40;99.90
53880;DHT22;39791;53.184;5.486;2023-03-14T10:17:46;8.40;99.90
53880;DHT22;39791;53.184;5.486;2023-03-14T10:20:37;8.60;99.90
53880;DHT22;39791;53.184;5.486;2023-03-14T10:23:05;8.70;99.90
53880;DHT22;39791;53.184;5.486;2023-03-14T10:25:34;8.70;99.90
53880;DHT22;39791;53.184;5.486;2023-03-14T10:28:02;8.70;99.90
53880;DHT22;39791;53.184;5.486;2023-03-14T10:33:08;8.20;99.90
53880;DHT22;39791;53.184;5.486;2023-03-14T10:35:35;8.10;99.90
53880;DHT22;39791;53.184;5.486;2023-03-14T10:38:02;8.30;99.90
53880;DHT22;39791;53.184;5.486;2023-03-14T10:40:31;8.10;99.90
53880;DHT22;39791;53.184;5.486;2023-03-14T10:42:59;8.10;99.90
53880;DHT22;39791;53.184;5.486;2023-03-14T10:45:43;8.00;72.80
53880;DHT22;39791;53.184;5.486;2023-03-14T10:48:36;8.10;58.40
53880;DHT22;39791;53.184;5.486;2023-03-14T10:56:19;8.20;3.10
53880;DHT22;39791;53.184;5.486;2023-03-14T10:58:48;8.20;1.30
53880;DHT22;39791;53.184;5.486;2023-03-14T11:04:08;8.30;1.00
53880;DHT22;39791;53.184;5.486;2023-03-14T11:06:50;8.30;1.00
53880;DHT22;39791;53.184;5.486;2023-03-14T11:09:37;8.30;1.00
53880;DHT22;39791;53.184;5.486;2023-03-14T11:12:35;8.20;1.00
53880;DHT22;39791;53.184;5.486;2023-03-14T11:18:23;8.50;1.00
53880;DHT22;39791;53.184;5.486;2023-03-14T11:21:01;8.70;1.00
53880;DHT22;39791;53.184;5.486;2023-03-14T11:23:37;8.50;1.00
53880;DHT22;39791;53.184;5.486;2023-03-14T11:28:38;8.00;1.00
53880;DHT22;39791;53.184;5.486;2023-03-14T11:31:29;8.10;1.10
53880;DHT22;39791;53.184;5.486;2023-03-14T11:34:10;8.20;1.00
53880;DHT22;39791;53.184;5.486;2023-03-14T11:36:46;8.30;1.00
53880;DHT22;39791;53.184;5.486;2023-03-14T11:39:18;8.40;12.00
53880;DHT22;39791;53.184;5.486;2023-03-14T11:41:49;8.30;1.00
53880;DHT22;39791;53.184;5.486;2023-03-14T11:47:23;8.40;1.00
53880;DHT22;39791;53.184;5.486;2023-03-14T11:50:08;8.40;1.00
53880;DHT22;39791;53.184;5.486;2023-03-14T11:52:44;8.20;1.00
53880;DHT22;39791;53.184;5.486;2023-03-14T11:57:51;7.90;1.00
53880;DHT22;39791;53.184;5.486;2023-03-14T12:00:20;9.70;1.00
53880;DHT22;39791;53.184;5.486;2023-03-14T12:03:06;7.80;1.00
53880;DHT22;39791;53.184;5.486;2023-03-14T12:11:13;7.70;1.00
53880;DHT22;39791;53.184;5.486;2023-03-14T12:13:39;7.90;1.00
53880;DHT22;39791;53.184;5.486;2023-03-14T12:18:52;8.00;1.00
53880;DHT22;39791;53.184;5.486;2023-03-14T12:21:19;8.10;1.00
53880;DHT22;39791;53.184;5.486;2023-03-14T12:23:55;8.10;1.00
53880;DHT22;39791;53.184;5.486;2023-03-14T12:26:27;8.10;1.00
53880;DHT22;39791;53.184;5.486;2023-03-14T12:34:24;7.90;1.00
53880;DHT22;39791;53.184;5.486;2023-03-14T12:42:57;7.80;1.00
53880;DHT22;39791;53.184;5.486;2023-03-14T12:45:34;7.80;1.00
53880;DHT22;39791;53.184;5.486;2023-03-14T12:48:07;7.90;1.00
53880;DHT22;39791;53.184;5.486;2023-03-14T12:51:00;7.90;1.00
53880;DHT22;39791;53.184;5.486;2023-03-14T12:56:34;8.10;1.00
53880;DHT22;39791;53.184;5.486;2023-03-14T12:59:23;8.20;1.00
53880;DHT22;39791;53.184;5.486;2023-03-14T13:01:58;8.20;1.00
53880;DHT22;39791;53.184;5.486;2023-03-14T13:04:31;8.10;1.00
53880;DHT22;39791;53.184;5.486;2023-03-14T13:07:00;8.20;1.00
53880;DHT22;39791;53.184;5.486;2023-03-14T13:11:56;7.80;1.00
53880;DHT22;39791;53.184;5.486;2023-03-14T13:14:28;7.90;1.00
53880;DHT22;39791;53.184;5.486;2023-03-14T13:16:54;8.10;1.00
53880;DHT22;39791;53.184;5.486;2023-03-14T13:19:28;8.10;1.00
53880;DHT22;39791;53.184;5.486;2023-03-14T13:22:19;8.10;1.00
53880;DHT22;39791;53.184;5.486;2023-03-14T13:24:46;8.10;1.00
53880;DHT22;39791;53.184;5.486;2023-03-14T13:27:18;8.20;1.00
53880;DHT22;39791;53.184;5.486;2023-03-14T13:29:48;8.10;1.00
53880;DHT22;39791;53.184;5.486;2023-03-14T13:32:20;8.30;1.00
53880;DHT22;39791;53.184;5.486;2023-03-14T13:34:46;8.40;1.00
53880;DHT22;39791;53.184;5.486;2023-03-14T13:37:18;8.30;1.00
53880;DHT22;39791;53.184;5.486;2023-03-14T13:39:54;8.10;1.00
53880;DHT22;39791;53.184;5.486;2023-03-14T13:42:29;8.00;1.00
53880;DHT22;39791;53.184;5.486;2023-03-14T13:44:56;8.00;1.00
53880;DHT22;39791;53.184;5.486;2023-03-14T13:47:24;7.90;1.00
53880;DHT22;39791;53.184;5.486;2023-03-14T13:49:50;8.10;1.00
53880;DHT22;39791;53.184;5.486;2023-03-14T13:52:28;8.10;1.00
53880;DHT22;39791;53.184;5.486;2023-03-14T13:54:55;8.00;1.00
53880;DHT22;39791;53.184;5.486;2023-03-14T13:57:21;7.80;1.00
53880;DHT22;39791;53.184;5.486;2023-03-14T14:00:05;7.80;1.00
53880;DHT22;39791;53.184;5.486;2023-03-14T14:02:33;7.90;1.00
53880;DHT22;39791;53.184;5.486;2023-03-14T14:05:01;7.90;1.00
53880;DHT22;39791;53.184;5.486;2023-03-14T14:07:27;7.70;1.00
53880;DHT22;39791;53.184;5.486;2023-03-14T14:09:54;7.40;1.00
53880;DHT22;39791;53.184;5.486;2023-03-14T14:12:25;7.20;1.00
53880;DHT22;39791;53.184;5.486;2023-03-14T14:15:17;7.10;1.00
53880;DHT22;39791;53.184;5.486;2023-03-14T14:17:52;7.10;1.30
53880;DHT22;39791;53.184;5.486;2023-03-14T14:20:34;7.10;16.10
53880;DHT22;39791;53.184;5.486;2023-03-14T14:23:06;7.10;16.70
53880;DHT22;39791;53.184;5.486;2023-03-14T14:25:32;7.10;16.70
53880;DHT22;39791;53.184;5.486;2023-03-14T14:27:58;7.20;35.20
53880;DHT22;39791;53.184;5.486;2023-03-14T14:30:30;7.40;47.70
53880;DHT22;39791;53.184;5.486;2023-03-14T14:33:20;7.50;1.00
53880;DHT22;39791;53.184;5.486;2023-03-14T14:35:56;7.60;1.00
53880;DHT22;39791;53.184;5.486;2023-03-14T14:38:22;7.60;1.00
53880;DHT22;39791;53.184;5.486;2023-03-14T14:40:51;7.60;1.00
53880;DHT22;39791;53.184;5.486;2023-03-14T14:43:22;7.60;1.00
53880;DHT22;39791;53.184;5.486;2023-03-14T14:45:51;7.60;1.00
53880;DHT22;39791;53.184;5.486;2023-03-14T14:48:22;7.60;1.00
53880;DHT22;39791;53.184;5.486;2023-03-14T14:51:04;7.80;1.00
53880;DHT22;39791;53.184;5.486;2023-03-14T14:53:41;7.80;1.00
53880;DHT22;39791;53.184;5.486;2023-03-14T14:56:16;7.70;1.00
53880;DHT22;39791;53.184;5.486;2023-03-14T14:58:45;7.80;1.00
53880;DHT22;39791;53.184;5.486;2023-03-14T15:01:16;7.70;1.00
53880;DHT22;39791;53.184;5.486;2023-03-14T15:03:45;7.40;1.00
53880;DHT22;39791;53.184;5.486;2023-03-14T15:06:13;7.00;1.00
53880;DHT22;39791;53.184;5.486;2023-03-14T15:08:40;6.70;1.00
53880;DHT22;39791;53.184;5.486;2023-03-14T15:11:05;6.60;19.70
53880;DHT22;39791;53.184;5.486;2023-03-14T15:13:31;6.70;54.80
53880;DHT22;39791;53.184;5.486;2023-03-14T15:15:57;7.60;52.50
53880;DHT22;39791;53.184;5.486;2023-03-14T15:18:24;7.20;18.00
53880;DHT22;39791;53.184;5.486;2023-03-14T15:20:50;7.30;1.00
53880;DHT22;39791;53.184;5.486;2023-03-14T15:23:18;7.40;1.00
53880;DHT22;39791;53.184;5.486;2023-03-14T15:25:44;7.30;1.00
53880;DHT22;39791;53.184;5.486;2023-03-14T15:28:24;7.20;1.00
53880;DHT22;39791;53.184;5.486;2023-03-14T15:30:56;7.20;1.00
53880;DHT22;39791;53.184;5.486;2023-03-14T15:33:22;7.30;1.00
53880;DHT22;39791;53.184;5.486;2023-03-14T15:35:48;7.20;1.00
53880;DHT22;39791;53.184;5.486;2023-03-14T15:38:17;7.30;1.00
53880;DHT22;39791;53.184;5.486;2023-03-14T15:40:45;7.30;1.00
53880;DHT22;39791;53.184;5.486;2023-03-14T15:43:10;7.40;1.00
53880;DHT22;39791;53.184;5.486;2023-03-14T15:45:36;7.30;1.00
53880;DHT22;39791;53.184;5.486;2023-03-14T15:48:03;7.30;1.00
53880;DHT22;39791;53.184;5.486;2023-03-14T15:50:29;7.30;1.00
53880;DHT22;39791;53.184;5.486;2023-03-14T15:52:55;7.30;1.00
53880;DHT22;39791;53.184;5.486;2023-03-14T15:55:22;7.30;1.00
53880;DHT22;39791;53.184;5.486;2023-03-14T15:57:47;7.20;1.00
53880;DHT22;39791;53.184;5.486;2023-03-14T16:00:16;7.20;1.00
53880;DHT22;39791;53.184;5.486;2023-03-14T16:02:47;7.10;1.00
53880;DHT22;39791;53.184;5.486;2023-03-14T16:05:13;7.10;1.00
53880;DHT22;39791;53.184;5.486;2023-03-14T16:07:40;7.00;1.00
53880;DHT22;39791;53.184;5.486;2023-03-14T16:10:07;7.10;1.00
53880;DHT22;39791;53.184;5.486;2023-03-14T16:12:33;7.00;1.00
53880;DHT22;39791;53.184;5.486;2023-03-14T16:14:59;7.00;1.00
53880;DHT22;39791;53.184;5.486;2023-03-14T16:17:25;7.00;1.00
53880;DHT22;39791;53.184;5.486;2023-03-14T16:19:50;7.10;1.00
53880;DHT22;39791;53.184;5.486;2023-03-14T16:22:16;7.00;1.00
53880;DHT22;39791;53.184;5.486;2023-03-14T16:24:41;7.10;1.00
53880;DHT22;39791;53.184;5.486;2023-03-14T16:27:07;7.00;1.00
53880;DHT22;39791;53.184;5.486;2023-03-14T16:29:33;7.00;1.00
53880;DHT22;39791;53.184;5.486;2023-03-14T16:31:58;7.00;1.00
53880;DHT22;39791;53.184;5.486;2023-03-14T16:34:24;7.00;1.00
53880;DHT22;39791;53.184;5.486;2023-03-14T16:36:49;6.90;1.00
53880;DHT22;39791;53.184;5.486;2023-03-14T16:39:18;6.80;1.00
53880;DHT22;39791;53.184;5.486;2023-03-14T16:41:44;6.60;1.00
53880;DHT22;39791;53.184;5.486;2023-03-14T16:44:10;6.60;1.00
53880;DHT22;39791;53.184;5.486;2023-03-14T16:46:36;6.60;15.60
53880;DHT22;39791;53.184;5.486;2023-03-14T16:49:02;6.50;58.50
53880;DHT22;39791;53.184;5.486;2023-03-14T16:51:28;6.30;99.90